sensor_id;sensor_type;location;lat;lon;timestamp;P1;durP1;ratioP1;P2;durP2;ratioP2
18166;SDS011;9208;42.688;23.404;2022-09-06T00:01:37;3.90;;;3.40;;
18166;SDS011;9208;42.688;23.404;2022-09-06T00:04:03;3.50;;;3.20;;
18166;SDS011;9208;42.688;23.404;2022-09-06T00:06:28;3.30;;;3.00;;
18166;SDS011;9208;42.688;23.404;2022-09-06T00:08:54;3.77;;;3.00;;
18166;SDS011;9208;42.688;23.404;2022-09-06T00:11:19;3.73;;;2.93;;
18166;SDS011;9208;42.688;23.404;2022-09-06T00:13:45;3.53;;;3.30;;
18166;SDS011;9208;42.688;23.404;2022-09-06T00:16:13;3.30;;;3.00;;
18166;SDS011;9208;42.688;23.404;2022-09-06T00:18:41;3.57;;;3.27;;
18166;SDS011;9208;42.688;23.404;2022-09-06T00:21:29;2.97;;;2.77;;
18166;SDS011;9208;42.688;23.404;2022-09-06T00:23:54;3.57;;;3.10;;
18166;SDS011;9208;42.688;23.404;2022-09-06T00:26:20;3.30;;;3.03;;
18166;SDS011;9208;42.688;23.404;2022-09-06T00:28:47;3.53;;;3.23;;
18166;SDS011;9208;42.688;23.404;2022-09-06T00:31:14;3.80;;;2.93;;
18166;SDS011;9208;42.688;23.404;2022-09-06T00:33:45;3.20;;;2.90;;
18166;SDS011;9208;42.688;23.404;2022-09-06T00:36:11;3.27;;;3.03;;
18166;SDS011;9208;42.688;23.404;2022-09-06T00:38:37;3.13;;;2.80;;
18166;SDS011;9208;42.688;23.404;2022-09-06T00:41:04;2.50;;;2.30;;
18166;SDS011;9208;42.688;23.404;2022-09-06T00:43:31;2.70;;;2.50;;
18166;SDS011;9208;42.688;23.404;2022-09-06T00:45:57;2.60;;;2.40;;
18166;SDS011;9208;42.688;23.404;2022-09-06T00:48:23;3.03;;;2.83;;
18166;SDS011;9208;42.688;23.404;2022-09-06T00:50:51;3.10;;;2.80;;
18166;SDS011;9208;42.688;23.404;2022-09-06T00:53:19;3.47;;;2.90;;
18166;SDS011;9208;42.688;23.404;2022-09-06T00:55:45;2.93;;;2.73;;
18166;SDS011;9208;42.688;23.404;2022-09-06T00:58:10;4.10;;;3.80;;
18166;SDS011;9208;42.688;23.404;2022-09-06T01:00:37;3.57;;;3.27;;
18166;SDS011;9208;42.688;23.404;2022-09-06T01:03:02;3.60;;;3.23;;
18166;SDS011;9208;42.688;23.404;2022-09-06T01:16:39;3.20;;;2.90;;
18166;SDS011;9208;42.688;23.404;2022-09-06T01:30:29;3.00;;;2.80;;
18166;SDS011;9208;42.688;23.404;2022-09-06T01:35:50;3.67;;;3.30;;
18166;SDS011;9208;42.688;23.404;2022-09-06T01:38:23;4.30;;;3.83;;
18166;SDS011;9208;42.688;23.404;2022-09-06T01:40:49;3.70;;;3.40;;
18166;SDS011;9208;42.688;23.404;2022-09-06T01:43:21;4.10;;;3.70;;
18166;SDS011;9208;42.688;23.404;2022-09-06T01:45:57;3.37;;;3.07;;
18166;SDS011;9208;42.688;23.404;2022-09-06T01:48:45;3.50;;;3.20;;
18166;SDS011;9208;42.688;23.404;2022-09-06T01:57:10;3.37;;;3.07;;
18166;SDS011;9208;42.688;23.404;2022-09-06T01:59:45;3.00;;;2.80;;
18166;SDS011;9208;42.688;23.404;2022-09-06T02:05:06;3.10;;;2.80;;
18166;SDS011;9208;42.688;23.404;2022-09-06T02:07:49;2.97;;;2.63;;
18166;SDS011;9208;42.688;23.404;2022-09-06T02:13:09;3.03;;;2.77;;
18166;SDS011;9208;42.688;23.404;2022-09-06T02:15:41;3.10;;;2.83;;
18166;SDS011;9208;42.688;23.404;2022-09-06T02:18:15;3.30;;;3.07;;
18166;SDS011;9208;42.688;23.404;2022-09-06T02:20:49;3.40;;;3.10;;
18166;SDS011;9208;42.688;23.404;2022-09-06T02:23:19;5.10;;;3.10;;
18166;SDS011;9208;42.688;23.404;2022-09-06T02:25:50;3.07;;;2.87;;
18166;SDS011;9208;42.688;23.404;2022-09-06T02:28:20;3.33;;;3.10;;
18166;SDS011;9208;42.688;23.404;2022-09-06T02:30:50;3.80;;;3.00;;
18166;SDS011;9208;42.688;23.404;2022-09-06T02:33:23;3.47;;;3.27;;
18166;SDS011;9208;42.688;23.404;2022-09-06T02:35:54;3.30;;;3.00;;
18166;SDS011;9208;42.688;23.404;2022-09-06T02:38:21;3.60;;;3.30;;
18166;SDS011;9208;42.688;23.404;2022-09-06T02:40:48;3.83;;;3.40;;
18166;SDS011;9208;42.688;23.404;2022-09-06T02:43:16;3.43;;;3.00;;
18166;SDS011;9208;42.688;23.404;2022-09-06T02:45:41;6.00;;;3.10;;
18166;SDS011;9208;42.688;23.404;2022-09-06T02:48:07;3.43;;;3.23;;
18166;SDS011;9208;42.688;23.404;2022-09-06T02:50:32;3.37;;;3.07;;
18166;SDS011;9208;42.688;23.404;2022-09-06T02:53:04;4.00;;;3.07;;
18166;SDS011;9208;42.688;23.404;2022-09-06T02:55:30;3.60;;;3.30;;
18166;SDS011;9208;42.688;23.404;2022-09-06T02:57:55;3.27;;;3.07;;
18166;SDS011;9208;42.688;23.404;2022-09-06T03:00:21;3.67;;;3.03;;
18166;SDS011;9208;42.688;23.404;2022-09-06T03:02:46;4.27;;;3.10;;
18166;SDS011;9208;42.688;23.404;2022-09-06T03:05:12;3.23;;;3.03;;
18166;SDS011;9208;42.688;23.404;2022-09-06T03:07:38;3.50;;;3.20;;
18166;SDS011;9208;42.688;23.404;2022-09-06T03:10:03;5.10;;;3.30;;
18166;SDS011;9208;42.688;23.404;2022-09-06T03:12:29;4.47;;;3.17;;
18166;SDS011;9208;42.688;23.404;2022-09-06T03:14:54;3.40;;;3.13;;
18166;SDS011;9208;42.688;23.404;2022-09-06T03:17:20;3.80;;;3.50;;
18166;SDS011;9208;42.688;23.404;2022-09-06T03:19:45;3.57;;;3.33;;
18166;SDS011;9208;42.688;23.404;2022-09-06T03:22:11;3.37;;;3.03;;
18166;SDS011;9208;42.688;23.404;2022-09-06T03:24:37;3.27;;;3.03;;
18166;SDS011;9208;42.688;23.404;2022-09-06T03:27:02;5.37;;;3.87;;
18166;SDS011;9208;42.688;23.404;2022-09-06T03:29:28;3.67;;;3.20;;
18166;SDS011;9208;42.688;23.404;2022-09-06T03:31:56;4.43;;;3.40;;
18166;SDS011;9208;42.688;23.404;2022-09-06T03:34:24;4.53;;;3.40;;
18166;SDS011;9208;42.688;23.404;2022-09-06T03:36:49;3.73;;;3.40;;
18166;SDS011;9208;42.688;23.404;2022-09-06T03:39:15;5.50;;;5.00;;
18166;SDS011;9208;42.688;23.404;2022-09-06T03:41:40;3.97;;;3.57;;
18166;SDS011;9208;42.688;23.404;2022-09-06T03:44:06;5.10;;;3.63;;
18166;SDS011;9208;42.688;23.404;2022-09-06T03:46:31;3.33;;;3.13;;
18166;SDS011;9208;42.688;23.404;2022-09-06T03:48:57;4.77;;;3.10;;
18166;SDS011;9208;42.688;23.404;2022-09-06T03:51:23;3.20;;;2.90;;
18166;SDS011;9208;42.688;23.404;2022-09-06T03:53:48;3.53;;;3.23;;
18166;SDS011;9208;42.688;23.404;2022-09-06T03:56:14;4.90;;;3.03;;
18166;SDS011;9208;42.688;23.404;2022-09-06T03:58:39;3.47;;;3.17;;
18166;SDS011;9208;42.688;23.404;2022-09-06T04:01:08;3.60;;;3.30;;
18166;SDS011;9208;42.688;23.404;2022-09-06T04:03:36;5.27;;;3.60;;
18166;SDS011;9208;42.688;23.404;2022-09-06T04:06:02;4.27;;;3.87;;
18166;SDS011;9208;42.688;23.404;2022-09-06T04:08:29;5.33;;;4.83;;
18166;SDS011;9208;42.688;23.404;2022-09-06T04:10:55;4.70;;;4.10;;
18166;SDS011;9208;42.688;23.404;2022-09-06T04:13:22;4.80;;;4.20;;
18166;SDS011;9208;42.688;23.404;2022-09-06T04:15:48;8.17;;;4.27;;
18166;SDS011;9208;42.688;23.404;2022-09-06T04:18:14;4.30;;;3.90;;
18166;SDS011;9208;42.688;23.404;2022-09-06T04:20:40;5.00;;;4.53;;
18166;SDS011;9208;42.688;23.404;2022-09-06T04:23:05;7.40;;;4.60;;
18166;SDS011;9208;42.688;23.404;2022-09-06T04:25:31;4.60;;;4.20;;
18166;SDS011;9208;42.688;23.404;2022-09-06T04:27:56;4.47;;;4.07;;
18166;SDS011;9208;42.688;23.404;2022-09-06T04:30:22;4.47;;;4.00;;
18166;SDS011;9208;42.688;23.404;2022-09-06T04:32:47;4.73;;;4.17;;
18166;SDS011;9208;42.688;23.404;2022-09-06T04:35:13;5.13;;;4.37;;
18166;SDS011;9208;42.688;23.404;2022-09-06T04:37:38;4.80;;;4.40;;
18166;SDS011;9208;42.688;23.404;2022-09-06T04:40:04;6.30;;;4.00;;
18166;SDS011;9208;42.688;23.404;2022-09-06T04:42:30;4.67;;;4.27;;
18166;SDS011;9208;42.688;23.404;2022-09-06T04:44:56;5.10;;;4.60;;
18166;SDS011;9208;42.688;23.404;2022-09-06T04:47:22;6.03;;;4.80;;
18166;SDS011;9208;42.688;23.404;2022-09-06T04:49:48;7.70;;;5.53;;
18166;SDS011;9208;42.688;23.404;2022-09-06T04:52:14;5.57;;;4.93;;
18166;SDS011;9208;42.688;23.404;2022-09-06T04:54:40;6.20;;;4.30;;
18166;SDS011;9208;42.688;23.404;2022-09-06T04:57:06;5.37;;;4.30;;
18166;SDS011;9208;42.688;23.404;2022-09-06T04:59:31;5.27;;;4.77;;
18166;SDS011;9208;42.688;23.404;2022-09-06T05:01:57;5.10;;;4.60;;
18166;SDS011;9208;42.688;23.404;2022-09-06T05:04:23;5.83;;;4.10;;
18166;SDS011;9208;42.688;23.404;2022-09-06T05:06:48;4.77;;;4.30;;
18166;SDS011;9208;42.688;23.404;2022-09-06T05:09:14;4.77;;;4.30;;
18166;SDS011;9208;42.688;23.404;2022-09-06T05:11:40;4.57;;;3.97;;
18166;SDS011;9208;42.688;23.404;2022-09-06T05:14:05;4.40;;;3.97;;
18166;SDS011;9208;42.688;23.404;2022-09-06T05:16:31;4.60;;;4.20;;
18166;SDS011;9208;42.688;23.404;2022-09-06T05:18:56;4.53;;;3.60;;
18166;SDS011;9208;42.688;23.404;2022-09-06T05:21:22;4.77;;;4.40;;
18166;SDS011;9208;42.688;23.404;2022-09-06T05:23:47;4.50;;;4.10;;
18166;SDS011;9208;42.688;23.404;2022-09-06T05:26:13;4.90;;;4.50;;
18166;SDS011;9208;42.688;23.404;2022-09-06T05:28:38;5.63;;;4.87;;
18166;SDS011;9208;42.688;23.404;2022-09-06T05:31:07;5.33;;;4.83;;
18166;SDS011;9208;42.688;23.404;2022-09-06T05:33:34;4.73;;;4.33;;
18166;SDS011;9208;42.688;23.404;2022-09-06T05:36:01;5.03;;;4.60;;
18166;SDS011;9208;42.688;23.404;2022-09-06T05:38:28;5.37;;;4.87;;
18166;SDS011;9208;42.688;23.404;2022-09-06T05:40:56;6.50;;;4.50;;
18166;SDS011;9208;42.688;23.404;2022-09-06T05:43:21;5.20;;;4.70;;
18166;SDS011;9208;42.688;23.404;2022-09-06T05:45:46;9.00;;;5.00;;
18166;SDS011;9208;42.688;23.404;2022-09-06T05:48:12;5.37;;;4.87;;
18166;SDS011;9208;42.688;23.404;2022-09-06T05:50:38;5.53;;;5.00;;
18166;SDS011;9208;42.688;23.404;2022-09-06T05:53:03;5.73;;;5.23;;
18166;SDS011;9208;42.688;23.404;2022-09-06T05:55:28;5.97;;;5.43;;
18166;SDS011;9208;42.688;23.404;2022-09-06T05:57:54;6.20;;;5.60;;
18166;SDS011;9208;42.688;23.404;2022-09-06T06:00:19;6.30;;;5.70;;
18166;SDS011;9208;42.688;23.404;2022-09-06T06:02:48;5.97;;;5.23;;
18166;SDS011;9208;42.688;23.404;2022-09-06T06:05:14;5.50;;;5.10;;
18166;SDS011;9208;42.688;23.404;2022-09-06T06:07:40;6.03;;;5.53;;
18166;SDS011;9208;42.688;23.404;2022-09-06T06:10:06;5.70;;;5.20;;
18166;SDS011;9208;42.688;23.404;2022-09-06T06:12:31;8.80;;;5.60;;
18166;SDS011;9208;42.688;23.404;2022-09-06T06:14:57;6.00;;;5.50;;
18166;SDS011;9208;42.688;23.404;2022-09-06T06:17:22;6.73;;;6.07;;
18166;SDS011;9208;42.688;23.404;2022-09-06T06:19:48;6.00;;;5.43;;
18166;SDS011;9208;42.688;23.404;2022-09-06T06:22:13;6.33;;;5.30;;
18166;SDS011;9208;42.688;23.404;2022-09-06T06:24:38;6.33;;;5.43;;
18166;SDS011;9208;42.688;23.404;2022-09-06T06:27:04;5.70;;;5.07;;
18166;SDS011;9208;42.688;23.404;2022-09-06T06:29:29;6.60;;;5.83;;
18166;SDS011;9208;42.688;23.404;2022-09-06T06:31:55;5.93;;;5.30;;
18166;SDS011;9208;42.688;23.404;2022-09-06T06:34:20;5.90;;;5.40;;
18166;SDS011;9208;42.688;23.404;2022-09-06T06:36:46;6.47;;;5.87;;
18166;SDS011;9208;42.688;23.404;2022-09-06T06:39:11;6.40;;;5.80;;
18166;SDS011;9208;42.688;23.404;2022-09-06T06:41:37;7.13;;;6.23;;
18166;SDS011;9208;42.688;23.404;2022-09-06T06:44:03;7.63;;;5.90;;
18166;SDS011;9208;42.688;23.404;2022-09-06T06:46:34;6.60;;;6.00;;
18166;SDS011;9208;42.688;23.404;2022-09-06T06:49:01;8.17;;;6.87;;
18166;SDS011;9208;42.688;23.404;2022-09-06T06:51:28;7.80;;;7.00;;
18166;SDS011;9208;42.688;23.404;2022-09-06T06:53:55;6.37;;;5.87;;
18166;SDS011;9208;42.688;23.404;2022-09-06T06:58:54;6.80;;;6.20;;
18166;SDS011;9208;42.688;23.404;2022-09-06T07:01:21;6.87;;;6.27;;
18166;SDS011;9208;42.688;23.404;2022-09-06T07:03:48;6.40;;;5.90;;
18166;SDS011;9208;42.688;23.404;2022-09-06T07:06:14;6.97;;;5.67;;
18166;SDS011;9208;42.688;23.404;2022-09-06T07:08:40;6.10;;;5.50;;
18166;SDS011;9208;42.688;23.404;2022-09-06T07:11:07;5.77;;;5.33;;
18166;SDS011;9208;42.688;23.404;2022-09-06T07:13:35;6.87;;;5.53;;
18166;SDS011;9208;42.688;23.404;2022-09-06T07:16:14;10.33;;;5.70;;
18166;SDS011;9208;42.688;23.404;2022-09-06T07:18:42;7.33;;;5.30;;
18166;SDS011;9208;42.688;23.404;2022-09-06T07:21:16;5.03;;;4.63;;
18166;SDS011;9208;42.688;23.404;2022-09-06T07:23:43;5.90;;;5.23;;
18166;SDS011;9208;42.688;23.404;2022-09-06T07:26:17;6.93;;;5.27;;
18166;SDS011;9208;42.688;23.404;2022-09-06T07:28:44;5.30;;;4.90;;
18166;SDS011;9208;42.688;23.404;2022-09-06T07:31:12;5.63;;;5.17;;
18166;SDS011;9208;42.688;23.404;2022-09-06T07:33:38;6.67;;;5.00;;
18166;SDS011;9208;42.688;23.404;2022-09-06T07:36:04;5.13;;;4.73;;
18166;SDS011;9208;42.688;23.404;2022-09-06T07:38:32;6.83;;;4.43;;
18166;SDS011;9208;42.688;23.404;2022-09-06T07:40:59;5.93;;;4.80;;
18166;SDS011;9208;42.688;23.404;2022-09-06T07:43:26;5.07;;;4.40;;
18166;SDS011;9208;42.688;23.404;2022-09-06T07:48:30;7.13;;;4.97;;
18166;SDS011;9208;42.688;23.404;2022-09-06T07:51:07;5.07;;;4.67;;
18166;SDS011;9208;42.688;23.404;2022-09-06T07:53:52;5.97;;;5.37;;
18166;SDS011;9208;42.688;23.404;2022-09-06T07:56:22;5.70;;;5.20;;
18166;SDS011;9208;42.688;23.404;2022-09-06T07:58:49;5.23;;;4.73;;
18166;SDS011;9208;42.688;23.404;2022-09-06T08:01:17;6.80;;;4.70;;
18166;SDS011;9208;42.688;23.404;2022-09-06T08:03:43;5.00;;;4.50;;
18166;SDS011;9208;42.688;23.404;2022-09-06T08:06:09;5.30;;;4.80;;
18166;SDS011;9208;42.688;23.404;2022-09-06T08:08:35;5.83;;;4.50;;
18166;SDS011;9208;42.688;23.404;2022-09-06T08:11:01;5.60;;;5.03;;
18166;SDS011;9208;42.688;23.404;2022-09-06T08:13:26;5.20;;;4.80;;
18166;SDS011;9208;42.688;23.404;2022-09-06T08:15:58;5.53;;;4.37;;
18166;SDS011;9208;42.688;23.404;2022-09-06T08:18:26;6.13;;;5.07;;
18166;SDS011;9208;42.688;23.404;2022-09-06T08:20:51;5.87;;;5.00;;
18166;SDS011;9208;42.688;23.404;2022-09-06T08:23:17;5.57;;;5.00;;
18166;SDS011;9208;42.688;23.404;2022-09-06T08:25:42;5.90;;;5.10;;
18166;SDS011;9208;42.688;23.404;2022-09-06T08:28:07;7.60;;;5.17;;
18166;SDS011;9208;42.688;23.404;2022-09-06T08:30:33;8.37;;;4.97;;
18166;SDS011;9208;42.688;23.404;2022-09-06T08:32:59;9.43;;;5.40;;
18166;SDS011;9208;42.688;23.404;2022-09-06T08:35:25;8.80;;;5.50;;
18166;SDS011;9208;42.688;23.404;2022-09-06T08:37:50;5.13;;;4.47;;
18166;SDS011;9208;42.688;23.404;2022-09-06T08:40:20;5.40;;;4.90;;
18166;SDS011;9208;42.688;23.404;2022-09-06T08:42:47;8.63;;;4.90;;
18166;SDS011;9208;42.688;23.404;2022-09-06T08:45:14;5.33;;;4.90;;
18166;SDS011;9208;42.688;23.404;2022-09-06T08:47:45;6.00;;;5.20;;
18166;SDS011;9208;42.688;23.404;2022-09-06T08:50:13;4.90;;;4.20;;
18166;SDS011;9208;42.688;23.404;2022-09-06T08:55:34;5.10;;;4.60;;
18166;SDS011;9208;42.688;23.404;2022-09-06T09:00:51;4.97;;;4.23;;
18166;SDS011;9208;42.688;23.404;2022-09-06T09:03:32;4.40;;;4.00;;
18166;SDS011;9208;42.688;23.404;2022-09-06T09:06:03;4.97;;;4.57;;
18166;SDS011;9208;42.688;23.404;2022-09-06T09:11:21;4.17;;;3.87;;
18166;SDS011;9208;42.688;23.404;2022-09-06T09:13:57;4.00;;;3.53;;
18166;SDS011;9208;42.688;23.404;2022-09-06T09:16:29;4.17;;;3.77;;
18166;SDS011;9208;42.688;23.404;2022-09-06T09:18:56;4.57;;;4.17;;
18166;SDS011;9208;42.688;23.404;2022-09-06T09:21:25;4.07;;;3.77;;
18166;SDS011;9208;42.688;23.404;2022-09-06T09:23:52;4.17;;;3.87;;
18166;SDS011;9208;42.688;23.404;2022-09-06T09:26:21;5.93;;;3.63;;
18166;SDS011;9208;42.688;23.404;2022-09-06T09:29:10;4.00;;;3.70;;
18166;SDS011;9208;42.688;23.404;2022-09-06T09:31:43;5.63;;;3.70;;
18166;SDS011;9208;42.688;23.404;2022-09-06T09:34:34;4.93;;;4.53;;
18166;SDS011;9208;42.688;23.404;2022-09-06T09:37:12;5.53;;;5.03;;
18166;SDS011;9208;42.688;23.404;2022-09-06T09:39:45;4.87;;;4.47;;
18166;SDS011;9208;42.688;23.404;2022-09-06T09:42:15;4.03;;;3.73;;
18166;SDS011;9208;42.688;23.404;2022-09-06T09:44:56;4.37;;;4.03;;
18166;SDS011;9208;42.688;23.404;2022-09-06T09:47:30;4.63;;;4.20;;
18166;SDS011;9208;42.688;23.404;2022-09-06T09:49:57;4.50;;;4.10;;
18166;SDS011;9208;42.688;23.404;2022-09-06T09:52:24;3.97;;;3.60;;
18166;SDS011;9208;42.688;23.404;2022-09-06T09:54:52;4.20;;;3.80;;
18166;SDS011;9208;42.688;23.404;2022-09-06T09:57:20;4.00;;;3.70;;
18166;SDS011;9208;42.688;23.404;2022-09-06T09:59:57;4.13;;;3.83;;
18166;SDS011;9208;42.688;23.404;2022-09-06T10:02:36;3.43;;;3.23;;
18166;SDS011;9208;42.688;23.404;2022-09-06T10:07:45;4.43;;;3.97;;
18166;SDS011;9208;42.688;23.404;2022-09-06T10:13:04;3.97;;;3.67;;
18166;SDS011;9208;42.688;23.404;2022-09-06T10:15:31;3.43;;;3.13;;
18166;SDS011;9208;42.688;23.404;2022-09-06T10:17:59;3.97;;;3.67;;
18166;SDS011;9208;42.688;23.404;2022-09-06T10:20:28;5.13;;;3.60;;
18166;SDS011;9208;42.688;23.404;2022-09-06T10:22:58;3.20;;;3.00;;
18166;SDS011;9208;42.688;23.404;2022-09-06T10:36:20;4.63;;;2.97;;
18166;SDS011;9208;42.688;23.404;2022-09-06T10:38:59;3.10;;;2.90;;
18166;SDS011;9208;42.688;23.404;2022-09-06T10:47:12;3.03;;;2.83;;
18166;SDS011;9208;42.688;23.404;2022-09-06T10:49:47;3.00;;;2.80;;
18166;SDS011;9208;42.688;23.404;2022-09-06T10:52:24;3.20;;;2.90;;
18166;SDS011;9208;42.688;23.404;2022-09-06T10:54:56;2.80;;;2.60;;
18166;SDS011;9208;42.688;23.404;2022-09-06T10:58:13;2.80;;;2.60;;
18166;SDS011;9208;42.688;23.404;2022-09-06T11:00:20;3.80;;;2.60;;
18166;SDS011;9208;42.688;23.404;2022-09-06T11:02:51;2.90;;;2.70;;
18166;SDS011;9208;42.688;23.404;2022-09-06T11:05:24;2.40;;;2.30;;
18166;SDS011;9208;42.688;23.404;2022-09-06T11:08:07;3.73;;;2.57;;
18166;SDS011;9208;42.688;23.404;2022-09-06T11:10:40;2.60;;;2.40;;
18166;SDS011;9208;42.688;23.404;2022-09-06T11:13:16;2.97;;;2.57;;
18166;SDS011;9208;42.688;23.404;2022-09-06T11:15:54;2.93;;;2.50;;
18166;SDS011;9208;42.688;23.404;2022-09-06T11:18:30;2.70;;;2.13;;
18166;SDS011;9208;42.688;23.404;2022-09-06T11:23:47;3.33;;;2.40;;
18166;SDS011;9208;42.688;23.404;2022-09-06T11:28:52;2.13;;;2.03;;
18166;SDS011;9208;42.688;23.404;2022-09-06T11:31:30;2.30;;;2.10;;
18166;SDS011;9208;42.688;23.404;2022-09-06T11:34:40;4.33;;;2.40;;
18166;SDS011;9208;42.688;23.404;2022-09-06T11:37:00;3.00;;;2.47;;
18166;SDS011;9208;42.688;23.404;2022-09-06T11:39:32;2.37;;;2.20;;
18166;SDS011;9208;42.688;23.404;2022-09-06T11:41:59;2.00;;;1.90;;
18166;SDS011;9208;42.688;23.404;2022-09-06T11:50:15;2.20;;;2.10;;
18166;SDS011;9208;42.688;23.404;2022-09-06T12:00:46;2.20;;;2.10;;
18166;SDS011;9208;42.688;23.404;2022-09-06T12:06:23;2.17;;;2.07;;
18166;SDS011;9208;42.688;23.404;2022-09-06T12:08:52;2.37;;;2.17;;
18166;SDS011;9208;42.688;23.404;2022-09-06T12:13:53;2.00;;;1.83;;
18166;SDS011;9208;42.688;23.404;2022-09-06T12:17:16;2.87;;;1.80;;
18166;SDS011;9208;42.688;23.404;2022-09-06T12:29:56;3.60;;;2.37;;
18166;SDS011;9208;42.688;23.404;2022-09-06T12:32:27;2.73;;;2.13;;
18166;SDS011;9208;42.688;23.404;2022-09-06T12:34:58;2.03;;;1.87;;
18166;SDS011;9208;42.688;23.404;2022-09-06T12:37:30;1.80;;;1.70;;
18166;SDS011;9208;42.688;23.404;2022-09-06T12:39:58;2.30;;;2.10;;
18166;SDS011;9208;42.688;23.404;2022-09-06T12:42:24;2.00;;;1.90;;
18166;SDS011;9208;42.688;23.404;2022-09-06T12:44:52;2.00;;;1.90;;
18166;SDS011;9208;42.688;23.404;2022-09-06T12:47:31;1.80;;;1.67;;
18166;SDS011;9208;42.688;23.404;2022-09-06T12:55:30;2.37;;;2.27;;
18166;SDS011;9208;42.688;23.404;2022-09-06T12:58:02;1.47;;;1.47;;
18166;SDS011;9208;42.688;23.404;2022-09-06T13:00:35;2.47;;;1.87;;
18166;SDS011;9208;42.688;23.404;2022-09-06T13:03:42;2.17;;;1.97;;
18166;SDS011;9208;42.688;23.404;2022-09-06T13:06:04;2.00;;;1.90;;
18166;SDS011;9208;42.688;23.404;2022-09-06T13:08:35;2.37;;;2.10;;
18166;SDS011;9208;42.688;23.404;2022-09-06T13:11:07;2.07;;;1.73;;
18166;SDS011;9208;42.688;23.404;2022-09-06T13:13:35;2.40;;;2.20;;
18166;SDS011;9208;42.688;23.404;2022-09-06T13:16:01;2.67;;;1.77;;
18166;SDS011;9208;42.688;23.404;2022-09-06T13:18:36;1.83;;;1.63;;
18166;SDS011;9208;42.688;23.404;2022-09-06T13:23:43;1.80;;;1.70;;
18166;SDS011;9208;42.688;23.404;2022-09-06T13:26:13;2.23;;;1.97;;
18166;SDS011;9208;42.688;23.404;2022-09-06T13:28:39;1.80;;;1.63;;
18166;SDS011;9208;42.688;23.404;2022-09-06T13:33:33;1.93;;;1.83;;
18166;SDS011;9208;42.688;23.404;2022-09-06T13:41:06;2.90;;;1.50;;
18166;SDS011;9208;42.688;23.404;2022-09-06T13:46:24;2.63;;;1.90;;
18166;SDS011;9208;42.688;23.404;2022-09-06T13:48:53;1.77;;;1.67;;
18166;SDS011;9208;42.688;23.404;2022-09-06T13:51:19;2.73;;;1.57;;
18166;SDS011;9208;42.688;23.404;2022-09-06T13:53:44;2.17;;;1.70;;
18166;SDS011;9208;42.688;23.404;2022-09-06T13:56:10;1.90;;;1.70;;
18166;SDS011;9208;42.688;23.404;2022-09-06T13:58:36;1.60;;;1.50;;
18166;SDS011;9208;42.688;23.404;2022-09-06T14:01:02;1.40;;;1.40;;
18166;SDS011;9208;42.688;23.404;2022-09-06T14:03:32;2.20;;;1.67;;
18166;SDS011;9208;42.688;23.404;2022-09-06T14:05:59;2.10;;;1.90;;
18166;SDS011;9208;42.688;23.404;2022-09-06T14:08:28;2.00;;;1.90;;
18166;SDS011;9208;42.688;23.404;2022-09-06T14:10:54;1.80;;;1.70;;
18166;SDS011;9208;42.688;23.404;2022-09-06T14:13:20;3.20;;;1.70;;
18166;SDS011;9208;42.688;23.404;2022-09-06T14:15:46;1.70;;;1.60;;
18166;SDS011;9208;42.688;23.404;2022-09-06T14:18:13;1.70;;;1.60;;
18166;SDS011;9208;42.688;23.404;2022-09-06T14:20:39;2.03;;;1.50;;
18166;SDS011;9208;42.688;23.404;2022-09-06T14:23:05;1.40;;;1.37;;
18166;SDS011;9208;42.688;23.404;2022-09-06T14:25:35;2.00;;;1.67;;
18166;SDS011;9208;42.688;23.404;2022-09-06T14:28:03;1.40;;;1.40;;
18166;SDS011;9208;42.688;23.404;2022-09-06T14:30:29;2.43;;;1.40;;
18166;SDS011;9208;42.688;23.404;2022-09-06T14:32:55;2.00;;;1.90;;
18166;SDS011;9208;42.688;23.404;2022-09-06T14:35:20;2.70;;;1.87;;
18166;SDS011;9208;42.688;23.404;2022-09-06T14:37:46;2.63;;;1.90;;
18166;SDS011;9208;42.688;23.404;2022-09-06T14:40:24;1.87;;;1.77;;
18166;SDS011;9208;42.688;23.404;2022-09-06T14:42:50;1.80;;;1.70;;
18166;SDS011;9208;42.688;23.404;2022-09-06T14:45:16;2.40;;;1.70;;
18166;SDS011;9208;42.688;23.404;2022-09-06T14:47:41;2.17;;;1.97;;
18166;SDS011;9208;42.688;23.404;2022-09-06T14:50:07;2.00;;;1.90;;
18166;SDS011;9208;42.688;23.404;2022-09-06T14:52:36;1.80;;;1.70;;
18166;SDS011;9208;42.688;23.404;2022-09-06T14:55:01;2.43;;;2.27;;
18166;SDS011;9208;42.688;23.404;2022-09-06T14:57:27;2.60;;;2.10;;
18166;SDS011;9208;42.688;23.404;2022-09-06T14:59:54;3.13;;;2.10;;
18166;SDS011;9208;42.688;23.404;2022-09-06T15:02:19;2.23;;;2.10;;
18166;SDS011;9208;42.688;23.404;2022-09-06T15:04:45;2.17;;;1.90;;
18166;SDS011;9208;42.688;23.404;2022-09-06T15:07:10;2.53;;;2.10;;
18166;SDS011;9208;42.688;23.404;2022-09-06T15:09:36;2.30;;;2.10;;
18166;SDS011;9208;42.688;23.404;2022-09-06T15:12:01;2.33;;;2.20;;
18166;SDS011;9208;42.688;23.404;2022-09-06T15:14:27;2.50;;;2.30;;
18166;SDS011;9208;42.688;23.404;2022-09-06T15:16:56;2.30;;;2.10;;
18166;SDS011;9208;42.688;23.404;2022-09-06T15:19:24;2.53;;;2.33;;
18166;SDS011;9208;42.688;23.404;2022-09-06T15:21:51;3.20;;;2.40;;
18166;SDS011;9208;42.688;23.404;2022-09-06T15:24:18;2.80;;;2.33;;
18166;SDS011;9208;42.688;23.404;2022-09-06T15:26:44;4.47;;;2.37;;
18166;SDS011;9208;42.688;23.404;2022-09-06T15:29:10;2.70;;;2.50;;
18166;SDS011;9208;42.688;23.404;2022-09-06T15:31:36;2.80;;;2.47;;
18166;SDS011;9208;42.688;23.404;2022-09-06T15:34:02;2.10;;;2.00;;
18166;SDS011;9208;42.688;23.404;2022-09-06T15:36:29;2.30;;;2.10;;
18166;SDS011;9208;42.688;23.404;2022-09-06T15:38:57;2.37;;;2.27;;
18166;SDS011;9208;42.688;23.404;2022-09-06T15:41:25;2.93;;;2.30;;
18166;SDS011;9208;42.688;23.404;2022-09-06T15:43:53;5.17;;;2.30;;
18166;SDS011;9208;42.688;23.404;2022-09-06T15:49:07;2.17;;;2.07;;
18166;SDS011;9208;42.688;23.404;2022-09-06T15:51:35;2.27;;;2.07;;
18166;SDS011;9208;42.688;23.404;2022-09-06T15:54:03;2.50;;;2.27;;
18166;SDS011;9208;42.688;23.404;2022-09-06T15:56:29;2.30;;;2.10;;
18166;SDS011;9208;42.688;23.404;2022-09-06T15:58:55;2.70;;;2.50;;
18166;SDS011;9208;42.688;23.404;2022-09-06T16:01:21;2.17;;;2.07;;
18166;SDS011;9208;42.688;23.404;2022-09-06T16:03:48;3.20;;;2.40;;
18166;SDS011;9208;42.688;23.404;2022-09-06T16:06:21;2.40;;;2.20;;
18166;SDS011;9208;42.688;23.404;2022-09-06T16:08:49;2.40;;;2.20;;
18166;SDS011;9208;42.688;23.404;2022-09-06T16:11:16;2.23;;;2.13;;
18166;SDS011;9208;42.688;23.404;2022-09-06T16:13:43;2.33;;;2.20;;
18166;SDS011;9208;42.688;23.404;2022-09-06T16:16:11;2.50;;;2.30;;
18166;SDS011;9208;42.688;23.404;2022-09-06T16:18:39;2.43;;;2.33;;
18166;SDS011;9208;42.688;23.404;2022-09-06T16:23:46;2.50;;;2.30;;
18166;SDS011;9208;42.688;23.404;2022-09-06T16:26:13;2.13;;;2.03;;
18166;SDS011;9208;42.688;23.404;2022-09-06T16:28:39;2.13;;;2.00;;
18166;SDS011;9208;42.688;23.404;2022-09-06T16:31:06;2.50;;;2.30;;
18166;SDS011;9208;42.688;23.404;2022-09-06T16:33:33;2.40;;;2.20;;
18166;SDS011;9208;42.688;23.404;2022-09-06T16:36:00;2.20;;;2.07;;
18166;SDS011;9208;42.688;23.404;2022-09-06T16:38:28;3.63;;;2.20;;
18166;SDS011;9208;42.688;23.404;2022-09-06T16:40:57;3.87;;;2.70;;
18166;SDS011;9208;42.688;23.404;2022-09-06T16:43:24;2.80;;;2.60;;
18166;SDS011;9208;42.688;23.404;2022-09-06T16:45:54;2.40;;;2.10;;
18166;SDS011;9208;42.688;23.404;2022-09-06T16:48:21;2.00;;;1.90;;
18166;SDS011;9208;42.688;23.404;2022-09-06T16:50:46;3.03;;;2.60;;
18166;SDS011;9208;42.688;23.404;2022-09-06T16:53:12;2.60;;;2.07;;
18166;SDS011;9208;42.688;23.404;2022-09-06T16:55:37;2.40;;;2.20;;
18166;SDS011;9208;42.688;23.404;2022-09-06T16:58:03;3.20;;;2.30;;
18166;SDS011;9208;42.688;23.404;2022-09-06T17:00:28;2.53;;;2.30;;
18166;SDS011;9208;42.688;23.404;2022-09-06T17:02:54;2.40;;;2.20;;
18166;SDS011;9208;42.688;23.404;2022-09-06T17:05:20;3.23;;;2.40;;
18166;SDS011;9208;42.688;23.404;2022-09-06T17:07:46;3.90;;;2.83;;